Terminal Aerodrome Forecast
Issued by NWS

Home | Current Version | Previous Version | Text Only | Print | Product List | Glossary On
Versions: 1 2 3 4 5 6 7 8 9 10 11 12 13 14 15
995
FTUS45 KRIW 211124
TAFLND
TAF
KLND 211124Z 2112/2212 VRB04KT 6SM -SN SCT030 OVC050
      TEMPO 2112/2115 2SM -SN BKN030
     FM211700 VRB05KT P6SM SCT028 OVC040
     FM212300 VRB04KT P6SM SCT040 BKN080
     FM220300 VRB04KT P6SM VCFG SCT080=

USA.gov is the U.S. government's official web portal to all federal, state and local government web resources and services.